Kezdőlap
METAR-TAF:

METAR-TAF

Repülőterek :

Hévíz-Balaton nemzetközi repülőtér

Hévíz, Magyarország

földrajzi szélesség: 46-41-11N, földrajzi hosszúság: 017-09-33E, magasság: 124 m

Jelenlegi meteorológiai megfigyelések

A jelentés 32 perccel ezelõtt készült, 18:15 UTC
Északnyugati szél 2 kt
Hőmérséklet 11°C
Páratartalom 82%
Légköri nyomás 1024 hPa
Látótávolság 10 km, vagy több
felhőtlen 1500 m magasságban, és nincs gomolyfelhõ

METAR: LHSM 201815Z 31002KT CAVOK 11/08 Q1024

Idő: 20:47 (18:47 UTC)

Előrejelzés

A jelentés 4 órával és 32 perccel ezelõtt készült, 14:15 UTC
Az előrejelzés 20-én 15 óra UTC és 20-én 24 óra UTC között érvényes
Északi szél 9 kt
Látótávolság 10 km, vagy több
felhőtlen 1500 m magasságban, és nincs gomolyfelhõ

TAF: LHSM 201415Z 2015/2024 36009KT CAVOK

Meteorológiai megfigyelések és előrejelzések több, mint 4000 repülőtéren (METAR és TAF jelentéseket).

A térképen piros és sárga pontok jelzik az elérhető meteorológiai állomásokat.

Mozgassa az egeret a pont fölött, hogy megjelenjen az állomás neve.

Azután kattintson az időjárási megfigyelések és előrejelzések megtekintéséhez.

A térkép megváltoztatása: kattintson a fekete keresztel jelölt zöld gombra ráközelítéshez, a vonallal jelölt zöld gombra távolításhoz, vagy a zöld nyilakra a szomszédos térképek eléréséhez.


METAR-TAF: